Tofino Airport
CYAZ : rendu visible

Aérodrome :











RETROUVEZ-NOUS SUR...

 
LOGIN :

S'inscrire | Disclaimer

   EN    FR    IT 

 









Légende :    VFR   VFR Marginal   IFR   IFR Intensif   IFR Très Intensif
Visi : 
Plafond : 
>= 8 km
>= 3000ft
5 à 8 km
1000 à 3000 ft
1500m à 5 km
500 à 1000 ft
800 à 1500m
200 à 500 ft
< 800m
< 200 ft
Symboles :   Orages  Brouillard  Fortes neiges  Fortes précipitations  Vent > 20 kt






- Altitude de l'aérodrome : 80 ft
- Code IATA : YAZ


CYAZ - Tofino

DERNIER METAR :
  • 232012Z 25020G31KT 10SM -SHRA SCT014 BKN024TCU OVC032 08/06 A2976 RMK CF3TCU3SC2 VRY LGT PCPN SLP080

METARs EXPIRÉS :
  • 232000Z 26021G34KT 12SM FEW015 BKN025TCU BKN037 08/06 A2976 RMK CF2TCU3SC2 OCNL -SHRA PRESRR SLP078
  • 231916Z 26017G28KT 10SM -SHRA SCT014 BKN020TCU OVC035 07/05 A2973 RMK CF3TCU3SC2 SLP068
  • 231900Z 25018G27KT 10SM SCT015 BKN027TCU BKN040 07/06 A2972 RMK CF3TCU2SC2 OCNL -SHRA SLP065
  • 231853Z 25014G24KT 10SM -SHRA SCT013 BKN025TCU BKN042 07/06 A2972 RMK SC3TCU2SC2 SLP065
  • 231820Z 26020G26KT 10SM FEW013 BKN020TCU BKN035 OVC072 07/06 A2970 RMK SC2TCU3SC2AC1 SLP060
  • 231800Z 25021G29KT 8SM -SHRA BKN014 OVC023TCU 07/05 A2969 RMK SC5TCU3 SLP056
  • 231747Z 25015G27KT 8SM -SHRA BKN011 OVC023TCU 06/05 A2969 RMK CF5TCU3 SLP055

TAF TAF CYAZ
Valide du 23 à 19h jusqu'au 24 à 01h UTC


231838Z 2319/2401 27020G35KT P6SM -RA SCT015 OVC030
TEMPO 2319/2401 4SM -SHRA BR BKN015 OVC030 RMK NXT FCST WILL BE ISSUED AT 241645Z



MET'MAP, la Météo Aéronautique d'un coup d'oeil ! - Copyright ORBIFLY Décembre 2007 - Disclaimer

ORBIFLY MET'MAP TEAM :

Programmation & Développement : Alexandra Zaïnal
Sur une idée originale de : Baudouin d'Aumeries
Assistance à la programmation : Marc-Olivier Méhu
Soutien technique & logistique : Manuel Goepfert

Contact : metmap@orbifly.com




SOURCES & CREDITS :

   NOAA       Earth
Advisory